createdAt,value
2023-10-20T00:00:20.130Z,100.00
2023-10-20T00:02:37.103Z,100.00
2023-10-20T00:04:54.067Z,100.00
2023-10-20T00:07:10.981Z,100.00
2023-10-20T00:09:27.893Z,100.00
2023-10-20T00:11:44.752Z,100.00
2023-10-20T00:14:01.670Z,100.00
2023-10-20T00:16:18.676Z,100.00
2023-10-20T00:18:35.632Z,100.00
2023-10-20T00:20:52.472Z,100.00
2023-10-20T00:23:09.378Z,100.00
2023-10-20T00:25:26.318Z,100.00
2023-10-20T00:27:43.241Z,100.00
2023-10-20T00:30:00.164Z,100.00
2023-10-20T00:32:17.075Z,100.00
2023-10-20T00:34:34.278Z,100.00
2023-10-20T00:36:51.357Z,100.00
2023-10-20T00:39:08.265Z,100.00
2023-10-20T00:41:25.205Z,100.00
2023-10-20T00:43:42.260Z,100.00
2023-10-20T00:45:59.234Z,100.00
2023-10-20T00:48:16.159Z,100.00
2023-10-20T00:50:33.077Z,100.00
2023-10-20T00:52:50.238Z,100.00
2023-10-20T00:55:07.534Z,100.00
2023-10-20T00:57:24.803Z,100.00
2023-10-20T00:59:41.732Z,100.00
2023-10-20T01:01:58.905Z,100.00
2023-10-20T01:04:16.391Z,100.00
2023-10-20T01:06:33.342Z,100.00
2023-10-20T01:08:50.439Z,100.00
2023-10-20T01:11:07.876Z,100.00
2023-10-20T01:13:24.983Z,100.00
2023-10-20T01:15:41.890Z,100.00
2023-10-20T01:17:58.792Z,100.00
2023-10-20T01:20:15.795Z,100.00
2023-10-20T01:22:32.861Z,100.00
2023-10-20T01:24:50.778Z,100.00
2023-10-20T01:27:07.736Z,100.00
2023-10-20T01:29:24.729Z,100.00
2023-10-20T01:31:41.649Z,100.00
2023-10-20T01:33:58.567Z,100.00
2023-10-20T01:36:15.469Z,100.00
2023-10-20T01:38:32.418Z,100.00
2023-10-20T01:40:49.311Z,100.00
2023-10-20T01:43:06.184Z,100.00
2023-10-20T01:45:23.503Z,100.00
2023-10-20T01:47:40.501Z,100.00
2023-10-20T01:49:57.437Z,100.00
2023-10-20T01:52:14.541Z,100.00
2023-10-20T01:54:31.654Z,100.00
2023-10-20T01:56:48.843Z,100.00
2023-10-20T01:59:05.714Z,100.00
2023-10-20T02:01:22.710Z,100.00
2023-10-20T02:03:39.660Z,100.00
2023-10-20T02:05:57.105Z,100.00
2023-10-20T02:08:14.484Z,100.00
2023-10-20T02:10:31.409Z,100.00
2023-10-20T02:12:48.303Z,100.00
2023-10-20T02:15:05.262Z,100.00
2023-10-20T02:17:22.318Z,100.00
2023-10-20T02:19:39.235Z,100.00
2023-10-20T02:21:56.619Z,100.00
2023-10-20T02:24:13.550Z,100.00
2023-10-20T02:26:30.506Z,100.00
2023-10-20T02:28:47.407Z,100.00
2023-10-20T02:31:04.795Z,100.00
2023-10-20T02:33:22.328Z,100.00
2023-10-20T02:35:39.359Z,100.00
2023-10-20T02:37:56.827Z,100.00
2023-10-20T02:40:13.676Z,100.00
2023-10-20T02:42:30.623Z,100.00
2023-10-20T02:44:48.021Z,100.00
2023-10-20T02:47:04.958Z,100.00
2023-10-20T02:49:21.958Z,100.00
2023-10-20T02:51:39.245Z,100.00
2023-10-20T02:53:56.173Z,100.00
2023-10-20T02:56:13.158Z,100.00
2023-10-20T02:58:30.066Z,100.00
2023-10-20T03:00:47.142Z,100.00
2023-10-20T03:03:04.624Z,100.00
2023-10-20T03:05:21.740Z,100.00
2023-10-20T03:07:38.694Z,100.00
2023-10-20T03:09:55.604Z,100.00
2023-10-20T03:12:12.491Z,100.00
2023-10-20T03:14:29.599Z,100.00
2023-10-20T03:16:46.570Z,100.00
2023-10-20T03:19:03.596Z,100.00
2023-10-20T03:21:20.477Z,100.00
2023-10-20T03:23:37.390Z,100.00
2023-10-20T03:25:54.800Z,100.00
2023-10-20T03:28:11.729Z,100.00
2023-10-20T03:30:28.642Z,100.00
2023-10-20T03:32:45.652Z,100.00
2023-10-20T03:35:02.756Z,100.00
2023-10-20T03:37:19.710Z,100.00
2023-10-20T03:39:37.271Z,100.00
2023-10-20T03:41:54.519Z,100.00
2023-10-20T03:44:11.692Z,100.00
2023-10-20T03:46:28.770Z,100.00
2023-10-20T03:48:45.724Z,100.00
2023-10-20T03:51:02.643Z,100.00
2023-10-20T03:53:22.443Z,100.00
2023-10-20T03:55:39.559Z,100.00
2023-10-20T03:57:56.959Z,100.00
2023-10-20T04:00:13.837Z,100.00
2023-10-20T04:02:30.778Z,100.00
2023-10-20T04:04:47.701Z,100.00
2023-10-20T04:07:04.578Z,100.00
2023-10-20T04:09:21.636Z,100.00
2023-10-20T04:11:38.605Z,100.00
2023-10-20T04:13:55.667Z,100.00
2023-10-20T04:16:12.707Z,100.00
2023-10-20T04:18:30.030Z,100.00
2023-10-20T04:20:46.973Z,100.00
2023-10-20T04:23:04.334Z,100.00
2023-10-20T04:25:21.263Z,100.00
2023-10-20T04:27:38.201Z,100.00
2023-10-20T04:29:55.331Z,100.00
2023-10-20T04:32:12.313Z,100.00
2023-10-20T04:34:29.452Z,100.00
2023-10-20T04:36:46.788Z,100.00
2023-10-20T04:39:03.653Z,100.00
2023-10-20T04:41:20.542Z,100.00
2023-10-20T04:43:37.444Z,100.00
2023-10-20T04:45:54.345Z,100.00
2023-10-20T04:48:11.720Z,100.00
2023-10-20T04:50:28.716Z,100.00
2023-10-20T04:52:45.776Z,100.00
2023-10-20T04:55:02.637Z,100.00
2023-10-20T04:57:19.509Z,100.00
2023-10-20T04:59:36.489Z,100.00
2023-10-20T05:01:53.571Z,100.00
2023-10-20T05:04:10.517Z,100.00
2023-10-20T05:06:27.515Z,100.00
2023-10-20T05:08:44.486Z,100.00
2023-10-20T05:11:01.371Z,100.00
2023-10-20T05:13:18.289Z,100.00
2023-10-20T05:15:35.176Z,100.00
2023-10-20T05:17:52.181Z,100.00
2023-10-20T05:20:09.175Z,100.00
2023-10-20T05:22:26.088Z,100.00
2023-10-20T05:24:42.959Z,100.00
2023-10-20T05:27:00.341Z,100.00
2023-10-20T05:29:17.270Z,100.00
2023-10-20T05:31:34.641Z,100.00
2023-10-20T05:33:51.543Z,100.00
2023-10-20T05:36:09.528Z,100.00
2023-10-20T05:38:26.478Z,100.00
2023-10-20T05:40:43.646Z,100.00
2023-10-20T05:43:00.589Z,100.00
2023-10-20T05:45:17.495Z,100.00
2023-10-20T05:47:34.458Z,100.00
2023-10-20T05:49:51.537Z,100.00
2023-10-20T05:52:08.438Z,100.00
2023-10-20T05:54:25.575Z,100.00
2023-10-20T05:56:42.527Z,100.00
2023-10-20T05:58:59.428Z,100.00
2023-10-20T06:01:16.490Z,100.00
2023-10-20T06:03:38.562Z,100.00
2023-10-20T06:05:55.509Z,100.00
2023-10-20T06:08:14.677Z,100.00
2023-10-20T06:10:31.586Z,100.00
2023-10-20T06:12:48.511Z,100.00
2023-10-20T06:15:05.377Z,100.00
2023-10-20T06:17:23.538Z,100.00
2023-10-20T06:19:40.472Z,100.00
2023-10-20T06:21:57.477Z,100.00
2023-10-20T06:24:18.858Z,100.00
2023-10-20T06:26:35.854Z,100.00
2023-10-20T06:28:52.802Z,100.00
2023-10-20T06:31:11.822Z,100.00
2023-10-20T06:33:33.275Z,100.00
2023-10-20T06:35:50.212Z,100.00
2023-10-20T06:38:07.829Z,100.00
2023-10-20T06:40:26.263Z,100.00
2023-10-20T06:42:43.197Z,100.00
2023-10-20T06:45:00.309Z,100.00
2023-10-20T06:47:17.642Z,100.00
2023-10-20T06:49:34.747Z,100.00
2023-10-20T06:51:51.847Z,100.00
2023-10-20T06:54:09.018Z,100.00
2023-10-20T06:56:29.142Z,100.00
2023-10-20T06:58:46.396Z,100.00
2023-10-20T07:01:03.525Z,100.00
2023-10-20T07:03:20.621Z,100.00
2023-10-20T07:05:37.607Z,100.00
2023-10-20T07:07:54.606Z,100.00
2023-10-20T07:10:11.473Z,100.00
2023-10-20T07:12:28.435Z,100.00
2023-10-20T07:14:45.358Z,100.00
2023-10-20T07:17:02.723Z,100.00
2023-10-20T07:19:19.632Z,100.00
2023-10-20T07:21:36.561Z,100.00
2023-10-20T07:23:53.636Z,100.00
2023-10-20T07:26:10.678Z,100.00
2023-10-20T07:28:27.739Z,100.00
2023-10-20T07:30:44.750Z,100.00
2023-10-20T07:33:01.744Z,100.00
2023-10-20T07:35:18.814Z,100.00
2023-10-20T07:37:35.844Z,100.00
2023-10-20T07:39:52.714Z,100.00
2023-10-20T07:42:09.829Z,100.00
2023-10-20T07:44:26.758Z,100.00
2023-10-20T07:46:43.777Z,100.00
2023-10-20T07:49:01.108Z,100.00
2023-10-20T07:51:18.022Z,100.00
2023-10-20T07:53:35.040Z,100.00
2023-10-20T07:55:52.013Z,100.00
2023-10-20T07:58:08.959Z,100.00
2023-10-20T08:00:25.851Z,100.00
2023-10-20T08:02:43.089Z,100.00
2023-10-20T08:05:00.496Z,100.00
2023-10-20T08:07:18.301Z,100.00
2023-10-20T08:09:35.432Z,100.00
2023-10-20T08:11:52.556Z,100.00
2023-10-20T08:14:09.606Z,100.00
2023-10-20T08:16:26.612Z,100.00
2023-10-20T08:18:43.511Z,100.00
2023-10-20T08:21:00.447Z,100.00
2023-10-20T08:23:17.434Z,100.00
2023-10-20T08:25:34.420Z,100.00
2023-10-20T08:27:51.510Z,100.00
2023-10-20T08:30:08.918Z,100.00
2023-10-20T08:32:25.909Z,100.00
2023-10-20T08:34:42.867Z,100.00
2023-10-20T08:36:59.819Z,100.00
2023-10-20T08:39:16.875Z,100.00
2023-10-20T08:41:33.897Z,100.00
2023-10-20T08:43:50.865Z,100.00
2023-10-20T08:46:07.817Z,100.00
2023-10-20T08:48:24.813Z,100.00
2023-10-20T08:50:41.822Z,100.00
2023-10-20T08:52:59.226Z,100.00
2023-10-20T08:55:16.219Z,100.00
2023-10-20T08:57:34.480Z,100.00
2023-10-20T08:59:51.498Z,100.00
2023-10-20T09:02:08.468Z,100.00
2023-10-20T09:04:25.522Z,100.00
2023-10-20T09:06:42.519Z,100.00
2023-10-20T09:08:59.471Z,100.00
2023-10-20T09:11:16.562Z,100.00
2023-10-20T09:13:33.558Z,100.00
2023-10-20T09:15:50.598Z,100.00
2023-10-20T09:18:07.649Z,100.00
2023-10-20T09:20:24.593Z,100.00
2023-10-20T09:22:41.975Z,100.00
2023-10-20T09:24:59.181Z,100.00
2023-10-20T09:27:16.074Z,100.00
2023-10-20T09:29:33.270Z,100.00
2023-10-20T09:31:50.339Z,100.00
2023-10-20T09:34:10.998Z,100.00
2023-10-20T09:36:28.609Z,100.00
2023-10-20T09:38:45.788Z,100.00
2023-10-20T09:41:02.848Z,100.00
2023-10-20T09:43:26.232Z,100.00
2023-10-20T09:45:44.151Z,100.00
2023-10-20T09:48:01.178Z,100.00
2023-10-20T09:50:18.349Z,100.00
2023-10-20T09:52:37.961Z,100.00
2023-10-20T09:54:57.447Z,100.00
2023-10-20T09:57:14.421Z,100.00
2023-10-20T09:59:31.750Z,100.00
2023-10-20T10:01:49.611Z,100.00
2023-10-20T10:04:07.042Z,100.00
2023-10-20T10:06:24.041Z,100.00
2023-10-20T10:08:41.058Z,100.00
2023-10-20T10:10:58.741Z,100.00
2023-10-20T10:13:16.111Z,100.00
2023-10-20T10:15:33.364Z,100.00
2023-10-20T10:17:50.427Z,100.00
2023-10-20T10:20:07.587Z,100.00
2023-10-20T10:22:24.465Z,100.00
2023-10-20T10:24:41.552Z,100.00
2023-10-20T10:26:58.688Z,100.00
2023-10-20T10:29:16.195Z,100.00
2023-10-20T10:31:33.365Z,100.00
2023-10-20T10:33:50.548Z,100.00
2023-10-20T10:36:07.834Z,100.00
2023-10-20T10:38:25.126Z,100.00
2023-10-20T10:40:42.140Z,100.00
2023-10-20T10:42:59.036Z,100.00
2023-10-20T10:45:16.425Z,100.00
2023-10-20T10:47:33.373Z,100.00
2023-10-20T10:49:50.310Z,100.00
2023-10-20T10:52:07.869Z,100.00
2023-10-20T10:54:25.179Z,100.00
2023-10-20T10:56:47.269Z,100.00
2023-10-20T10:59:09.643Z,100.00
2023-10-20T11:01:26.587Z,100.00
2023-10-20T11:03:44.614Z,100.00
2023-10-20T11:06:01.619Z,100.00
2023-10-20T11:08:18.782Z,100.00
2023-10-20T11:10:35.815Z,100.00
2023-10-20T11:12:52.784Z,100.00
2023-10-20T11:15:10.865Z,100.00
2023-10-20T11:17:28.440Z,100.00
2023-10-20T11:19:45.628Z,100.00
2023-10-20T11:22:02.736Z,100.00
2023-10-20T11:24:19.698Z,100.00
2023-10-20T11:26:38.849Z,100.00
2023-10-20T11:28:57.841Z,100.00
2023-10-20T11:31:14.773Z,100.00
2023-10-20T11:33:31.912Z,100.00
2023-10-20T11:35:48.934Z,100.00
2023-10-20T11:38:05.910Z,100.00
2023-10-20T11:40:22.819Z,100.00
2023-10-20T11:42:42.185Z,100.00
2023-10-20T11:44:59.138Z,100.00
2023-10-20T11:47:16.126Z,100.00
2023-10-20T11:49:33.067Z,100.00
2023-10-20T11:51:50.010Z,100.00
2023-10-20T11:54:06.899Z,100.00
2023-10-20T11:56:24.469Z,100.00
2023-10-20T11:58:41.619Z,100.00
2023-10-20T12:00:59.656Z,100.00
2023-10-20T12:03:17.021Z,100.00
2023-10-20T12:05:34.147Z,100.00
2023-10-20T12:07:51.224Z,100.00
2023-10-20T12:10:08.141Z,100.00
2023-10-20T12:12:25.492Z,100.00
2023-10-20T12:14:42.488Z,100.00
2023-10-20T12:16:59.736Z,100.00
2023-10-20T12:19:16.709Z,100.00
2023-10-20T12:21:33.623Z,100.00
2023-10-20T12:23:50.591Z,100.00
2023-10-20T12:26:07.505Z,100.00
2023-10-20T12:28:25.484Z,100.00
2023-10-20T12:30:42.407Z,100.00
2023-10-20T12:32:59.824Z,100.00
2023-10-20T12:35:16.784Z,100.00
2023-10-20T12:37:33.743Z,100.00
2023-10-20T12:39:50.841Z,99.32
2023-10-20T12:42:07.783Z,99.75
2023-10-20T12:44:24.786Z,99.82
2023-10-20T12:46:41.781Z,99.67
2023-10-20T12:48:58.685Z,97.05
2023-10-20T12:51:15.706Z,97.64
2023-10-20T12:53:32.697Z,96.91
2023-10-20T12:55:49.625Z,94.83
2023-10-20T12:58:06.946Z,95.31
2023-10-20T13:00:24.277Z,95.16
2023-10-20T13:02:41.450Z,95.91
2023-10-20T13:04:58.543Z,96.29
2023-10-20T13:07:15.499Z,93.94
2023-10-20T13:09:32.823Z,93.68
2023-10-20T13:11:49.811Z,93.01
2023-10-20T13:14:06.886Z,92.44
2023-10-20T13:16:24.216Z,92.49
2023-10-20T13:18:41.142Z,93.88
2023-10-20T13:20:58.164Z,92.17
2023-10-20T13:23:15.128Z,90.84
2023-10-20T13:25:32.010Z,89.73
2023-10-20T13:27:48.933Z,89.47
2023-10-20T13:30:06.286Z,91.41
2023-10-20T13:32:23.758Z,89.09
2023-10-20T13:34:41.189Z,90.46
2023-10-20T13:36:58.089Z,89.35
2023-10-20T13:39:18.195Z,88.50
2023-10-20T13:41:50.002Z,88.02
2023-10-20T13:44:07.102Z,88.15
2023-10-20T13:46:24.161Z,89.53
2023-10-20T13:48:41.114Z,90.59
2023-10-20T13:50:58.202Z,88.20
2023-10-20T13:53:15.716Z,88.01
2023-10-20T13:55:32.731Z,88.24
2023-10-20T13:57:49.708Z,88.02
2023-10-20T14:00:06.701Z,88.24
2023-10-20T14:02:26.338Z,88.46
2023-10-20T14:04:43.443Z,88.29
2023-10-20T14:07:00.405Z,87.58
2023-10-20T14:09:17.479Z,87.63
2023-10-20T14:11:34.398Z,88.92
2023-10-20T14:13:51.316Z,91.00
2023-10-20T14:16:08.213Z,91.11
2023-10-20T14:18:25.346Z,92.46
2023-10-20T14:20:42.349Z,92.46
2023-10-20T14:22:59.261Z,92.49
2023-10-20T14:25:16.123Z,92.41
2023-10-20T14:27:33.030Z,92.10
2023-10-20T14:29:49.990Z,92.00
2023-10-20T14:32:06.908Z,90.37
2023-10-20T14:34:24.020Z,90.75
2023-10-20T14:36:40.965Z,91.55
2023-10-20T14:38:58.006Z,91.94
2023-10-20T14:41:15.114Z,90.88
2023-10-20T14:43:32.043Z,89.42
2023-10-20T14:45:49.009Z,90.03
2023-10-20T14:48:05.983Z,88.44
2023-10-20T14:50:23.080Z,87.63
2023-10-20T14:52:40.230Z,87.28
2023-10-20T14:54:57.122Z,87.95
2023-10-20T14:57:13.988Z,88.36
2023-10-20T14:59:30.898Z,88.04
2023-10-20T15:01:47.850Z,88.62
2023-10-20T15:04:17.961Z,88.95
2023-10-20T15:06:41.638Z,88.78
2023-10-20T15:08:58.576Z,88.70
2023-10-20T15:24:34.300Z,90.94
2023-10-20T15:26:51.357Z,90.82
2023-10-20T15:29:08.482Z,90.78
2023-10-20T15:31:25.910Z,90.40
2023-10-20T15:33:43.403Z,91.19
2023-10-20T15:36:00.459Z,91.73
2023-10-20T15:38:18.046Z,91.78
2023-10-20T15:40:34.946Z,91.84
2023-10-20T15:42:51.915Z,91.75
2023-10-20T15:45:09.034Z,92.31
2023-10-20T15:47:26.013Z,93.04
2023-10-20T15:49:43.166Z,93.07
2023-10-20T15:52:00.555Z,94.11
2023-10-20T15:54:17.518Z,95.01
2023-10-20T15:56:34.498Z,94.66
2023-10-20T15:58:51.471Z,94.74
2023-10-20T16:01:08.634Z,94.85
2023-10-20T16:03:25.740Z,95.20
2023-10-20T16:05:43.736Z,95.13
2023-10-20T16:08:00.688Z,95.96
2023-10-20T16:10:17.784Z,96.52
2023-10-20T16:12:34.971Z,96.29
2023-10-20T16:14:53.272Z,96.22
2023-10-20T16:17:12.286Z,97.14
2023-10-20T16:19:29.224Z,96.23
2023-10-20T16:21:46.273Z,97.15
2023-10-20T16:24:03.426Z,97.23
2023-10-20T16:26:20.394Z,96.56
2023-10-20T16:28:37.355Z,97.38
2023-10-20T16:30:54.505Z,96.43
2023-10-20T16:33:11.703Z,96.98
2023-10-20T16:35:28.697Z,98.11
2023-10-20T16:37:45.743Z,97.70
2023-10-20T16:40:02.690Z,98.31
2023-10-20T16:42:19.608Z,98.59
2023-10-20T16:44:36.645Z,99.76
2023-10-20T16:46:53.702Z,99.75
2023-10-20T16:49:10.701Z,99.73
2023-10-20T16:51:28.638Z,98.62
2023-10-20T16:53:47.896Z,99.43
2023-10-20T16:56:05.329Z,99.86
2023-10-20T16:58:22.287Z,98.88
2023-10-20T17:00:39.227Z,98.98
2023-10-20T17:02:56.645Z,99.34
2023-10-20T17:05:14.281Z,100.00
2023-10-20T17:07:31.215Z,100.00
2023-10-20T17:09:48.227Z,99.91
2023-10-20T17:12:05.794Z,99.88
2023-10-20T17:14:22.977Z,98.80
2023-10-20T17:16:41.006Z,100.00
2023-10-20T17:18:58.399Z,99.08
2023-10-20T17:21:16.586Z,99.36
2023-10-20T17:23:33.547Z,100.00
2023-10-20T17:25:50.479Z,100.00
2023-10-20T17:28:07.378Z,100.00
2023-10-20T17:30:24.358Z,99.47
2023-10-20T17:32:41.438Z,100.00
2023-10-20T17:34:58.412Z,100.00
2023-10-20T17:37:15.388Z,100.00
2023-10-20T17:39:32.286Z,100.00
2023-10-20T17:41:49.504Z,100.00
2023-10-20T17:44:06.908Z,100.00
2023-10-20T17:46:23.866Z,100.00
2023-10-20T17:48:41.052Z,100.00
2023-10-20T17:50:59.349Z,100.00
2023-10-20T17:53:16.433Z,100.00
2023-10-20T17:55:33.464Z,100.00
2023-10-20T17:57:50.422Z,100.00
2023-10-20T18:00:08.140Z,100.00
2023-10-20T18:02:25.218Z,99.90
2023-10-20T18:04:42.220Z,100.00
2023-10-20T18:06:59.231Z,100.00
2023-10-20T18:09:16.433Z,100.00
2023-10-20T18:11:33.485Z,100.00
2023-10-20T18:13:50.599Z,100.00
2023-10-20T18:16:07.687Z,100.00
2023-10-20T18:18:24.783Z,100.00
2023-10-20T18:20:42.041Z,100.00
2023-10-20T18:22:59.039Z,100.00
2023-10-20T18:25:16.109Z,99.70
2023-10-20T18:27:33.161Z,98.44
2023-10-20T18:29:50.351Z,100.00
2023-10-20T18:32:07.739Z,98.62
2023-10-20T18:34:24.674Z,99.05
2023-10-20T18:36:44.094Z,99.29
2023-10-20T18:39:01.280Z,99.98
2023-10-20T18:41:18.302Z,100.00
2023-10-20T18:43:35.452Z,99.53
2023-10-20T18:45:52.915Z,100.00
2023-10-20T18:48:10.324Z,100.00
2023-10-20T18:50:27.311Z,100.00
2023-10-20T18:52:44.301Z,100.00
2023-10-20T18:55:01.343Z,100.00
2023-10-20T18:57:18.243Z,99.84
2023-10-20T18:59:35.815Z,100.00
2023-10-20T19:01:52.897Z,100.00
2023-10-20T19:04:11.016Z,100.00
2023-10-20T19:06:28.464Z,100.00
2023-10-20T19:08:45.449Z,100.00
2023-10-20T19:11:02.422Z,100.00
2023-10-20T19:13:19.470Z,100.00
2023-10-20T19:15:36.586Z,100.00
2023-10-20T19:17:53.653Z,100.00
2023-10-20T19:20:10.570Z,100.00
2023-10-20T19:22:27.515Z,100.00
2023-10-20T19:24:44.431Z,100.00
2023-10-20T19:27:03.730Z,100.00
2023-10-20T19:29:20.654Z,100.00
2023-10-20T19:31:37.685Z,100.00
2023-10-20T19:33:54.766Z,100.00
2023-10-20T19:36:11.779Z,100.00
2023-10-20T19:38:28.929Z,100.00
2023-10-20T19:40:45.836Z,100.00
2023-10-20T19:43:02.787Z,100.00
2023-10-20T19:45:20.221Z,100.00
2023-10-20T19:47:37.501Z,100.00
2023-10-20T19:49:54.487Z,100.00
2023-10-20T19:52:11.397Z,100.00
2023-10-20T19:54:28.504Z,100.00
2023-10-20T19:56:45.437Z,100.00
2023-10-20T19:59:02.438Z,100.00
2023-10-20T20:01:19.405Z,100.00
2023-10-20T20:03:36.672Z,100.00
2023-10-20T20:05:53.643Z,100.00
2023-10-20T20:08:10.595Z,100.00
2023-10-20T20:10:27.920Z,100.00
2023-10-20T20:12:44.818Z,100.00
2023-10-20T20:15:01.792Z,100.00
2023-10-20T20:17:18.799Z,100.00
2023-10-20T20:19:35.884Z,100.00
2023-10-20T20:21:52.913Z,100.00
2023-10-20T20:24:09.946Z,100.00
2023-10-20T20:26:26.960Z,100.00
2023-10-20T20:28:43.837Z,100.00
2023-10-20T20:31:00.749Z,100.00
2023-10-20T20:33:17.715Z,100.00
2023-10-20T20:35:34.739Z,100.00
2023-10-20T20:37:52.115Z,100.00
2023-10-20T20:40:09.125Z,100.00
2023-10-20T20:42:26.137Z,100.00
2023-10-20T20:44:43.051Z,100.00
2023-10-20T20:47:00.020Z,100.00
2023-10-20T20:49:16.985Z,100.00
2023-10-20T20:51:33.876Z,100.00
2023-10-20T20:53:50.846Z,100.00
2023-10-20T20:56:07.867Z,100.00
2023-10-20T20:58:24.838Z,100.00
2023-10-20T21:00:41.740Z,100.00
2023-10-20T21:02:58.824Z,100.00
2023-10-20T21:05:15.847Z,100.00
2023-10-20T21:07:32.762Z,100.00
2023-10-20T21:09:49.650Z,100.00
2023-10-20T21:12:06.671Z,100.00
2023-10-20T21:14:23.570Z,100.00
2023-10-20T21:16:41.033Z,100.00
2023-10-20T21:18:57.893Z,100.00
2023-10-20T21:21:14.973Z,100.00
2023-10-20T21:23:32.058Z,100.00
2023-10-20T21:25:49.078Z,100.00
2023-10-20T21:28:06.066Z,100.00
2023-10-20T21:30:23.019Z,100.00
2023-10-20T21:32:40.109Z,100.00
2023-10-20T21:34:57.088Z,100.00
2023-10-20T21:37:14.136Z,100.00
2023-10-20T21:39:31.090Z,100.00
2023-10-20T21:41:48.265Z,100.00
2023-10-20T21:44:05.183Z,100.00
2023-10-20T21:46:22.201Z,100.00
2023-10-20T21:48:39.317Z,100.00
2023-10-20T21:50:56.356Z,100.00
2023-10-20T21:53:13.299Z,100.00
2023-10-20T21:55:30.200Z,100.00
2023-10-20T21:57:47.176Z,100.00
2023-10-20T22:00:04.074Z,100.00
2023-10-20T22:02:21.020Z,100.00
2023-10-20T22:04:37.976Z,100.00
2023-10-20T22:06:55.006Z,100.00
2023-10-20T22:09:11.993Z,100.00
2023-10-20T22:11:28.967Z,100.00
2023-10-20T22:13:45.882Z,100.00
2023-10-20T22:16:02.814Z,100.00
2023-10-20T22:18:20.085Z,100.00
2023-10-20T22:20:37.168Z,100.00
2023-10-20T22:22:54.057Z,100.00
2023-10-20T22:25:10.970Z,100.00
2023-10-20T22:27:27.876Z,100.00
2023-10-20T22:29:45.256Z,100.00
2023-10-20T22:32:02.216Z,100.00
2023-10-20T22:34:19.159Z,100.00
2023-10-20T22:36:36.095Z,100.00
2023-10-20T22:38:53.086Z,100.00
2023-10-20T22:41:10.265Z,100.00
2023-10-20T22:43:27.165Z,100.00
2023-10-20T22:45:44.512Z,100.00
2023-10-20T22:48:01.484Z,100.00
2023-10-20T22:50:18.394Z,100.00
2023-10-20T22:52:35.449Z,100.00
2023-10-20T22:54:52.437Z,100.00
2023-10-20T22:57:09.429Z,100.00
2023-10-20T22:59:26.351Z,100.00
2023-10-20T23:01:43.323Z,100.00
2023-10-20T23:04:00.798Z,100.00
2023-10-20T23:06:17.904Z,100.00
2023-10-20T23:08:34.925Z,100.00
2023-10-20T23:10:51.876Z,100.00
2023-10-20T23:13:08.881Z,100.00
2023-10-20T23:15:25.861Z,100.00
2023-10-20T23:17:42.868Z,100.00
2023-10-20T23:20:00.030Z,100.00
2023-10-20T23:22:16.927Z,100.00
2023-10-20T23:24:33.871Z,100.00
2023-10-20T23:26:50.775Z,100.00
2023-10-20T23:29:08.173Z,100.00
2023-10-20T23:31:25.121Z,100.00
2023-10-20T23:33:42.144Z,100.00
2023-10-20T23:35:59.555Z,100.00
2023-10-20T23:38:16.513Z,100.00
2023-10-20T23:40:33.492Z,100.00
2023-10-20T23:42:50.833Z,100.00
2023-10-20T23:45:07.896Z,100.00
2023-10-20T23:47:24.842Z,100.00
2023-10-20T23:49:41.801Z,100.00
2023-10-20T23:51:58.669Z,100.00
2023-10-20T23:54:15.731Z,100.00
2023-10-20T23:56:32.796Z,100.00
2023-10-20T23:58:49.654Z,100.00
